• Join FlightAware (Why Join?)
  • Login
  • US Flag 
10:08AM EDT


 

Airport Tracker/Info


-or-


 

Live Flight TrackerFlight Track Log ✈ WJA1211 ✈ 05-Apr-2013 ✈ KLGA - CYYZ

Flight Track Log - Related Links

Times and Time Zones

All times are in EDT time to prevent confusion due to time zone crossing. See the WJA1211 flight status page for this flight to view local times or setup timezone preferences in your user account.

Time Position Orientation Groundspeed Altitude Reporting Facility
EDT Latitude Longitude Course Direction KTS MPH feet Rate Location/Type
05:39PM 40.8000 -73.8667 49° Northeast 148 170 1,300  Level New York TRACON
05:40PM 40.8333 -73.8167 49° Northeast 204 235 3,600 2,100 Climbing New York TRACON
05:41PM 40.9000 -73.8333 349° North 252 290 5,600 2,520 Climbing New York TRACON
05:44PM 41.0067 -74.0183 307° West 273 314 12,200 2,760 Climbing New York Center
05:45PM 41.0694 -74.0764 325° Northwest 294 338 15,000 1,860 Climbing New York Center
05:46PM 41.1569 -74.1497 328° Northwest 328 377 16,000 480 Climbing New York Center
05:47PM 41.2303 -74.2086 329° Northwest 340 391 16,000  Level New York Center
05:48PM 41.3156 -74.2792 328° Northwest 340 391 16,000 360 Level New York Center
05:49PM 41.3847 -74.3381 327° Northwest 330 380 16,800 1,680 Climbing New York Center
05:50PM 41.4444 -74.4297 311° West 330 380 19,400 2,640 Climbing New York Center
05:51PM 41.4931 -74.5406 300° West 335 386 22,200 2,640 Climbing New York Center
05:52PM 41.5389 -74.6650 296° West 355 409 24,800 2,520 Climbing New York Center
05:53PM 41.5911 -74.7872 300° West 369 425 27,200 2,520 Climbing New York Center
05:54PM 41.6431 -74.9069 300° West 379 436 29,800 1,380 Climbing New York Center
05:55PM 41.6950 -75.0294 300° West 379 436 30,000 60 Climbing New York Center
05:56PM 41.7467 -75.1525 299° West 379 436 30,000  Level New York Center
05:57PM 41.7983 -75.2756 299° West 385 443 30,000  Level New York Center
05:58PM 41.8519 -75.3989 300° West 385 443 30,000  Level New York Center
05:59PM 41.9033 -75.5222 299° West 385 443 30,000  Level New York Center
06:00PM 41.9525 -75.6456 298° West 385 443 30,000  Level New York Center
06:01PM 42.0036 -75.7667 300° West 385 443 30,000  Level New York Center
06:02PM 42.0489 -75.8761 299° West 385 443 30,000  Level New York Center
06:03PM 42.1036 -76.0089 299° West 379 436 30,000 -180 Level New York Center
06:04PM 42.1544 -76.1278 300° West 379 436 29,700 -600 Descending New York Center
06:04PM 42.1814 -76.2114 294° West 376 433 29,100 -1,080 Descending Cleveland Center
06:05PM 42.2192 -76.3294 293° West 381 438 28,100 -600 Descending Cleveland Center
06:06PM 42.2569 -76.4503 293° West 373 429 28,000 -60 Descending Cleveland Center
06:07PM 42.2967 -76.5742 293° West 362 417 28,000  Level Cleveland Center
06:08PM 42.3342 -76.6983 292° West 362 417 28,000  Level Cleveland Center
06:09PM 42.3739 -76.8194 294° West 362 417 28,000  Level Cleveland Center
06:10PM 42.4131 -76.9408 294° West 362 417 28,000  Level Cleveland Center
06:11PM 42.4503 -77.0656 292° West 362 417 28,000  Level Cleveland Center
06:12PM 42.4894 -77.1872 294° West 362 417 28,000  Level Cleveland Center
06:13PM 42.5242 -77.3036 292° West 355 409 28,000  Level Cleveland Center
06:14PM 42.5608 -77.4231 293° West 350 403 28,000  Level Cleveland Center
06:15PM 42.5994 -77.5397 294° West 344 396 28,000  Level Cleveland Center
06:16PM 42.6358 -77.6592 293° West 344 396 28,000  Level Cleveland Center
06:17PM 42.6678 -77.7736 291° West 344 396 28,000 -480 Level Cleveland Center
06:18PM 42.7061 -77.8989 293° West 339 390 27,100 -960 Descending Cleveland Center
06:19PM 42.7400 -78.0106 292° West 327 376 26,100 -1,020 Descending Cleveland Center
06:20PM 42.7736 -78.1194 293° West 327 376 25,100 -1,020 Descending Cleveland Center
06:21PM 42.8072 -78.2286 293° West 322 371 24,100 -1,020 Descending Cleveland Center
06:22PM 42.8386 -78.3378 291° West 317 365 23,100 -1,020 Descending Cleveland Center
06:23PM 42.8697 -78.4472 291° West 311 358 22,100 -1,020 Descending Cleveland Center
06:24PM 42.9031 -78.5539 293° West 311 358 21,100 -1,020 Descending Cleveland Center
06:25PM 42.9381 -78.6606 294° West 311 358 20,100 -960 Descending Cleveland Center
06:27PM 43.0333 -78.8333 307° West 320 368 18,100 -960 Descending Toronto Center
06:28PM 43.0833 -78.9500 300° West 320 368 17,100 -1,020 Descending Toronto Center
06:29PM 43.1500 -79.0333 318° Northwest 310 357 16,100 -900 Descending Toronto Center
06:30PM 43.2000 -79.1333 304° West 310 357 15,300 -1,380 Descending Toronto Center
06:31PM 43.2333 -79.2167 299° West 310 357 13,400 -1,320 Descending Toronto Center
06:32PM 43.2833 -79.3167 305° West 280 322 12,700 -780 Descending Toronto Center
06:33PM 43.3500 -79.3500 340° North 240 276 11,900 -480 Descending Toronto Center
06:34PM 43.4000 -79.3833 334° Northwest 210 242 11,800 -720 Descending Toronto Center
06:35PM 43.4667 -79.3833 360° North 220 253 10,500 -1,260 Descending Toronto Center
06:36PM 43.5000 -79.4333 313° West 200 230 9,300 -1,260 Descending Toronto Center
06:37PM 43.5500 -79.4667 334° Northwest 200 230 8,000 -1,140 Descending Toronto Center
06:38PM 43.5667 -79.5333 289° West 200 230 7,100 -1,200 Descending Toronto Center
06:39PM 43.5333 -79.6167 241° Southwest 220 253 5,600 -1,500 Descending Toronto Center
06:40PM 43.4833 -79.6833 224° Southwest 220 253 4,200 -1,140 Descending Toronto Center
06:41PM 43.4500 -79.7167 216° Southwest 200 230 3,400 -600 Descending Toronto Center
06:42PM 43.4500 -79.8000 270° West 180 207 3,000 -240 Descending Toronto Center
06:43PM 43.5000 -79.8000 360° North 180 207 3,000  Level Toronto Center
06:44PM 43.5500 -79.7500 36° Northeast 180 207 3,000 -300 Level Toronto Center
06:45PM 43.5833 -79.7000 47° Northeast 170 196 2,500 -720 Descending Toronto Center
06:46PM 43.6167 -79.6500 47° Northeast 170 196 1,600 -900 Descending Toronto Center
06:47PM 43.6333 -79.6167 55° Northeast 140 161 800 -600 Descending Toronto Center
06:48PM 43.6667 -79.5833 36° Northeast 130 150 400 -420 Descending Toronto Center